< < Back
Terminal Aerodrome Forecast


Current Version              Previous Versions:   1  2  3  4  5  6  7  8  9  

Terminal Aerodrome Forecast

176
FTUS42 KFFC 161500 AAB
TAFCSG
TAF AMD
KCSG 161555Z 1616/1712 34005KT P6SM VCSH SCT025 BKN040
      TEMPO 1617/1621 5SM -TSRA BR BKN025CB
     FM162100 28009KT P6SM SCT050 BKN100
     FM170200 30005KT P6SM SCT120 BKN250=

Latest METAR

353
SAUS70 KWBC 162100 RRA
MTRCSG
METAR KCSG 162051Z 01006KT 10SM FEW065 32/19 A2995 RMK AO2 RAB33E46
SLP137 P0000 60000 T03170189 56025


USA.gov is the U.S. government's official web portal to all federal, state and local government web resources and services.